sensor_id;sensor_type;location;lat;lon;timestamp;pressure;altitude;pressure_sealevel;temperature;humidity
29417;BME280;28421;51.030;4.006;2023-03-04T00:00:36;102728.31;;;4.94;65.26
29417;BME280;28421;51.030;4.006;2023-03-04T00:03:07;102769.06;;;5.27;65.60
29417;BME280;28421;51.030;4.006;2023-03-04T00:05:35;102734.47;;;5.11;65.30
29417;BME280;28421;51.030;4.006;2023-03-04T00:08:01;102786.28;;;5.37;65.20
29417;BME280;28421;51.030;4.006;2023-03-04T00:10:26;102750.38;;;5.12;65.37
29417;BME280;28421;51.030;4.006;2023-03-04T00:12:52;102734.28;;;5.14;65.28
29417;BME280;28421;51.030;4.006;2023-03-04T00:15:17;102749.88;;;5.36;64.98
29417;BME280;28421;51.030;4.006;2023-03-04T00:17:43;102755.38;;;5.18;65.10
29417;BME280;28421;51.030;4.006;2023-03-04T00:20:10;102742.34;;;5.28;65.16
29417;BME280;28421;51.030;4.006;2023-03-04T00:22:36;102735.09;;;5.00;65.31
29417;BME280;28421;51.030;4.006;2023-03-04T00:25:02;102766.41;;;5.27;65.38
29417;BME280;28421;51.030;4.006;2023-03-04T00:27:27;102719.63;;;5.21;64.96
29417;BME280;28421;51.030;4.006;2023-03-04T00:29:54;102776.34;;;5.69;64.86
29417;BME280;28421;51.030;4.006;2023-03-04T00:32:19;102709.25;;;4.86;65.35
29417;BME280;28421;51.030;4.006;2023-03-04T05:37:01;102698.91;;;5.40;70.06
29417;BME280;28421;51.030;4.006;2023-03-04T05:39:28;102676.22;;;5.33;69.42
29417;BME280;28421;51.030;4.006;2023-03-04T05:41:53;102653.66;;;5.24;69.29
29417;BME280;28421;51.030;4.006;2023-03-04T05:44:18;102667.56;;;5.30;69.78
29417;BME280;28421;51.030;4.006;2023-03-04T05:46:44;102660.41;;;5.16;69.36
29417;BME280;28421;51.030;4.006;2023-03-04T05:49:09;102681.84;;;5.29;69.54
29417;BME280;28421;51.030;4.006;2023-03-04T05:51:34;102665.47;;;5.35;69.11
29417;BME280;28421;51.030;4.006;2023-03-04T05:54:00;102673.84;;;5.29;69.40
29417;BME280;28421;51.030;4.006;2023-03-04T05:56:25;102648.13;;;5.28;69.11
29417;BME280;28421;51.030;4.006;2023-03-04T05:58:51;102676.72;;;5.54;68.63
29417;BME280;28421;51.030;4.006;2023-03-04T06:01:16;102649.84;;;5.29;68.67
29417;BME280;28421;51.030;4.006;2023-03-04T06:03:41;102648.03;;;5.29;69.04
29417;BME280;28421;51.030;4.006;2023-03-04T06:06:08;102651.38;;;5.33;68.91
29417;BME280;28421;51.030;4.006;2023-03-04T06:08:33;102661.09;;;5.48;68.50
29417;BME280;28421;51.030;4.006;2023-03-04T06:10:58;102683.19;;;5.50;68.59
29417;BME280;28421;51.030;4.006;2023-03-04T06:13:24;102674.81;;;5.28;68.76
29417;BME280;28421;51.030;4.006;2023-03-04T06:15:55;102664.31;;;5.39;68.83
29417;BME280;28421;51.030;4.006;2023-03-04T06:18:22;102703.91;;;5.61;68.18
29417;BME280;28421;51.030;4.006;2023-03-04T06:20:48;102679.00;;;5.46;68.55
29417;BME280;28421;51.030;4.006;2023-03-04T06:23:13;102666.00;;;5.11;68.33
29417;BME280;28421;51.030;4.006;2023-03-04T06:25:39;102649.34;;;5.08;68.42
29417;BME280;28421;51.030;4.006;2023-03-04T06:28:04;102680.38;;;5.09;67.84
29417;BME280;28421;51.030;4.006;2023-03-04T06:30:29;102690.47;;;5.18;68.14
29417;BME280;28421;51.030;4.006;2023-03-04T06:32:55;102677.06;;;5.19;68.20
29417;BME280;28421;51.030;4.006;2023-03-04T06:35:20;102697.28;;;5.23;67.52
29417;BME280;28421;51.030;4.006;2023-03-04T06:37:46;102667.59;;;4.99;67.91
29417;BME280;28421;51.030;4.006;2023-03-04T06:40:12;102666.63;;;5.01;68.05
29417;BME280;28421;51.030;4.006;2023-03-04T06:42:38;102705.44;;;5.20;68.18
29417;BME280;28421;51.030;4.006;2023-03-04T06:45:05;102702.78;;;5.20;67.92
29417;BME280;28421;51.030;4.006;2023-03-04T06:47:31;102682.41;;;5.19;67.92
29417;BME280;28421;51.030;4.006;2023-03-04T06:49:56;102689.00;;;5.28;68.09
29417;BME280;28421;51.030;4.006;2023-03-04T06:52:22;102731.03;;;5.53;67.95
29417;BME280;28421;51.030;4.006;2023-03-04T06:54:47;102689.44;;;5.20;67.98
29417;BME280;28421;51.030;4.006;2023-03-04T06:57:13;102678.75;;;5.06;68.08
29417;BME280;28421;51.030;4.006;2023-03-04T06:59:39;102693.75;;;5.23;68.07
29417;BME280;28421;51.030;4.006;2023-03-04T07:02:04;102709.09;;;5.34;68.15
29417;BME280;28421;51.030;4.006;2023-03-04T07:04:30;102714.66;;;5.45;68.22
29417;BME280;28421;51.030;4.006;2023-03-04T07:06:55;102713.69;;;5.46;67.97
29417;BME280;28421;51.030;4.006;2023-03-04T07:09:21;102671.41;;;5.10;68.21
29417;BME280;28421;51.030;4.006;2023-03-04T07:11:46;102733.03;;;5.49;68.45
29417;BME280;28421;51.030;4.006;2023-03-04T07:14:12;102686.09;;;5.17;68.49
29417;BME280;28421;51.030;4.006;2023-03-04T07:16:38;102744.75;;;5.47;68.81
29417;BME280;28421;51.030;4.006;2023-03-04T07:19:04;102710.34;;;5.42;68.29
29417;BME280;28421;51.030;4.006;2023-03-04T07:21:29;102706.81;;;5.28;68.24
29417;BME280;28421;51.030;4.006;2023-03-04T07:23:55;102710.41;;;5.27;68.40
29417;BME280;28421;51.030;4.006;2023-03-04T07:26:20;102719.88;;;5.46;68.15
29417;BME280;28421;51.030;4.006;2023-03-04T07:28:46;102726.19;;;5.60;68.02
29417;BME280;28421;51.030;4.006;2023-03-04T07:31:18;102728.31;;;5.69;67.92
29417;BME280;28421;51.030;4.006;2023-03-04T07:33:45;102720.09;;;5.43;67.84
29417;BME280;28421;51.030;4.006;2023-03-04T07:36:10;102753.81;;;5.59;68.45
29417;BME280;28421;51.030;4.006;2023-03-04T07:38:42;102715.28;;;5.34;68.54
29417;BME280;28421;51.030;4.006;2023-03-04T07:41:07;102752.50;;;5.52;68.72
29417;BME280;28421;51.030;4.006;2023-03-04T07:43:33;102760.69;;;5.63;68.63
29417;BME280;28421;51.030;4.006;2023-03-04T07:46:00;102768.81;;;5.76;68.38
29417;BME280;28421;51.030;4.006;2023-03-04T07:48:26;102743.31;;;5.56;69.35
29417;BME280;28421;51.030;4.006;2023-03-04T07:51:08;102765.94;;;5.64;70.14
29417;BME280;28421;51.030;4.006;2023-03-04T07:53:36;102764.53;;;5.73;70.42
29417;BME280;28421;51.030;4.006;2023-03-04T07:56:03;102727.53;;;5.53;70.62
29417;BME280;28421;51.030;4.006;2023-03-04T07:58:29;102786.63;;;5.75;71.41
29417;BME280;28421;51.030;4.006;2023-03-04T08:00:54;102750.19;;;5.45;71.96
29417;BME280;28421;51.030;4.006;2023-03-04T08:03:20;102774.63;;;5.82;71.71
29417;BME280;28421;51.030;4.006;2023-03-04T08:05:45;102747.84;;;5.69;72.03
29417;BME280;28421;51.030;4.006;2023-03-04T08:08:10;102760.28;;;5.55;72.50
29417;BME280;28421;51.030;4.006;2023-03-04T08:10:36;102760.63;;;5.34;73.68
29417;BME280;28421;51.030;4.006;2023-03-04T08:13:05;102775.66;;;5.65;73.31
29417;BME280;28421;51.030;4.006;2023-03-04T08:15:30;102758.53;;;5.84;72.74
29417;BME280;28421;51.030;4.006;2023-03-04T08:17:57;102786.13;;;5.98;72.53
29417;BME280;28421;51.030;4.006;2023-03-04T08:20:23;102761.47;;;5.79;72.54
29417;BME280;28421;51.030;4.006;2023-03-04T08:22:50;102766.69;;;5.66;73.58
29417;BME280;28421;51.030;4.006;2023-03-04T08:25:17;102761.94;;;5.71;73.69
29417;BME280;28421;51.030;4.006;2023-03-04T08:27:43;102755.63;;;5.58;73.73
29417;BME280;28421;51.030;4.006;2023-03-04T08:30:09;102755.50;;;5.90;73.36
29417;BME280;28421;51.030;4.006;2023-03-04T08:32:35;102801.38;;;5.96;73.47
29417;BME280;28421;51.030;4.006;2023-03-04T08:35:00;102805.28;;;6.05;74.08
29417;BME280;28421;51.030;4.006;2023-03-04T08:37:28;102777.34;;;5.96;73.72
29417;BME280;28421;51.030;4.006;2023-03-04T08:39:53;102768.06;;;5.88;73.47
29417;BME280;28421;51.030;4.006;2023-03-04T08:42:19;102765.56;;;5.56;74.70
29417;BME280;28421;51.030;4.006;2023-03-04T08:44:44;102758.00;;;5.48;75.53
29417;BME280;28421;51.030;4.006;2023-03-04T08:47:10;102763.63;;;5.58;75.66
29417;BME280;28421;51.030;4.006;2023-03-04T08:49:36;102759.63;;;5.51;75.97
29417;BME280;28421;51.030;4.006;2023-03-04T08:52:02;102734.63;;;5.38;76.02
29417;BME280;28421;51.030;4.006;2023-03-04T08:54:27;102751.25;;;5.71;75.58
29417;BME280;28421;51.030;4.006;2023-03-04T08:56:53;102759.88;;;5.91;74.95
29417;BME280;28421;51.030;4.006;2023-03-04T08:59:18;102745.22;;;5.98;74.06
29417;BME280;28421;51.030;4.006;2023-03-04T09:01:44;102768.84;;;6.33;73.56
29417;BME280;28421;51.030;4.006;2023-03-04T09:04:13;102721.88;;;6.02;73.66
29417;BME280;28421;51.030;4.006;2023-03-04T09:06:38;102747.84;;;6.41;72.89
29417;BME280;28421;51.030;4.006;2023-03-04T09:09:04;102754.44;;;6.35;72.29
29417;BME280;28421;51.030;4.006;2023-03-04T09:11:29;102753.66;;;6.33;72.55
29417;BME280;28421;51.030;4.006;2023-03-04T09:13:55;102737.25;;;6.39;72.00
29417;BME280;28421;51.030;4.006;2023-03-04T09:16:21;102754.78;;;6.58;71.70
29417;BME280;28421;51.030;4.006;2023-03-04T09:18:47;102788.91;;;6.67;71.87
29417;BME280;28421;51.030;4.006;2023-03-04T09:21:12;102723.41;;;6.47;71.02
29417;BME280;28421;51.030;4.006;2023-03-04T09:23:38;102764.41;;;6.60;71.01
29417;BME280;28421;51.030;4.006;2023-03-04T09:26:25;102779.00;;;6.55;70.84
29417;BME280;28421;51.030;4.006;2023-03-04T09:28:51;102749.59;;;6.13;70.82
29417;BME280;28421;51.030;4.006;2023-03-04T09:31:18;102782.22;;;6.74;69.96
29417;BME280;28421;51.030;4.006;2023-03-04T09:33:44;102765.91;;;6.23;69.98
29417;BME280;28421;51.030;4.006;2023-03-04T09:36:10;102776.19;;;6.43;70.50
29417;BME280;28421;51.030;4.006;2023-03-04T09:38:36;102749.59;;;6.28;69.94
29417;BME280;28421;51.030;4.006;2023-03-04T09:41:08;102772.78;;;6.68;69.97
29417;BME280;28421;51.030;4.006;2023-03-04T09:43:34;102794.50;;;6.91;69.52
29417;BME280;28421;51.030;4.006;2023-03-04T09:46:04;102794.56;;;6.62;69.80
29417;BME280;28421;51.030;4.006;2023-03-04T09:48:51;102733.78;;;6.10;70.75
29417;BME280;28421;51.030;4.006;2023-03-04T09:54:06;102789.16;;;7.18;69.37
29417;BME280;28421;51.030;4.006;2023-03-04T09:56:38;102729.66;;;6.87;69.35
29417;BME280;28421;51.030;4.006;2023-03-04T10:01:42;102738.34;;;6.91;69.94
29417;BME280;28421;51.030;4.006;2023-03-04T10:04:16;102784.31;;;7.10;69.33
29417;BME280;28421;51.030;4.006;2023-03-04T10:06:43;102740.41;;;6.73;69.87
29417;BME280;28421;51.030;4.006;2023-03-04T10:10:02;102703.69;;;6.62;69.38
29417;BME280;28421;51.030;4.006;2023-03-04T10:12:28;102710.63;;;6.92;69.34
29417;BME280;28421;51.030;4.006;2023-03-04T10:15:05;102760.94;;;6.72;69.63
29417;BME280;28421;51.030;4.006;2023-03-04T10:17:36;102779.84;;;6.96;69.94
29417;BME280;28421;51.030;4.006;2023-03-04T10:20:11;102793.41;;;7.20;69.88
29417;BME280;28421;51.030;4.006;2023-03-04T10:22:55;102737.16;;;6.95;70.37
29417;BME280;28421;51.030;4.006;2023-03-04T10:25:25;102747.53;;;7.27;69.06
29417;BME280;28421;51.030;4.006;2023-03-04T10:28:01;102781.84;;;7.60;69.03
29417;BME280;28421;51.030;4.006;2023-03-04T10:30:54;102787.25;;;7.45;69.59
29417;BME280;28421;51.030;4.006;2023-03-04T10:33:25;102748.28;;;7.41;68.57
29417;BME280;28421;51.030;4.006;2023-03-04T10:36:01;102789.25;;;7.82;68.11
29417;BME280;28421;51.030;4.006;2023-03-04T10:38:35;102789.03;;;7.72;67.96
29417;BME280;28421;51.030;4.006;2023-03-04T10:41:14;102746.28;;;7.45;68.10
29417;BME280;28421;51.030;4.006;2023-03-04T10:43:40;102727.84;;;7.53;68.11
29417;BME280;28421;51.030;4.006;2023-03-04T10:46:10;102734.16;;;7.27;68.54
29417;BME280;28421;51.030;4.006;2023-03-04T10:48:36;102705.47;;;7.29;67.65
29417;BME280;28421;51.030;4.006;2023-03-04T10:51:38;102755.47;;;7.92;66.54
29417;BME280;28421;51.030;4.006;2023-03-04T10:54:24;102697.94;;;7.21;67.01
29417;BME280;28421;51.030;4.006;2023-03-04T10:57:13;102767.81;;;7.82;66.47
29417;BME280;28421;51.030;4.006;2023-03-04T10:59:48;102752.50;;;8.09;66.14
29417;BME280;28421;51.030;4.006;2023-03-04T11:02:32;102770.59;;;8.06;66.19
29417;BME280;28421;51.030;4.006;2023-03-04T11:05:21;102716.47;;;8.13;65.93
29417;BME280;28421;51.030;4.006;2023-03-04T11:07:54;102736.16;;;8.25;65.30
29417;BME280;28421;51.030;4.006;2023-03-04T11:13:02;102753.28;;;9.20;63.34
29417;BME280;28421;51.030;4.006;2023-03-04T11:15:54;102705.84;;;8.85;61.64
29417;BME280;28421;51.030;4.006;2023-03-04T11:21:05;102714.59;;;8.87;61.76
29417;BME280;28421;51.030;4.006;2023-03-04T11:26:14;102713.41;;;8.43;63.04
29417;BME280;28421;51.030;4.006;2023-03-04T11:34:31;102710.28;;;8.50;62.37
29417;BME280;28421;51.030;4.006;2023-03-04T11:39:40;102722.91;;;8.60;63.08
29417;BME280;28421;51.030;4.006;2023-03-04T11:45:12;102719.25;;;8.61;63.70
29417;BME280;28421;51.030;4.006;2023-03-04T12:17:27;102684.03;;;8.90;61.82
29417;BME280;28421;51.030;4.006;2023-03-04T12:26:23;102679.47;;;9.14;61.27
29417;BME280;28421;51.030;4.006;2023-03-04T12:31:29;102584.47;;;9.17;60.36
29417;BME280;28421;51.030;4.006;2023-03-04T12:34:31;102634.34;;;9.08;61.17
29417;BME280;28421;51.030;4.006;2023-03-04T12:37:22;102670.84;;;8.87;61.85
29417;BME280;28421;51.030;4.006;2023-03-04T12:39:55;102673.50;;;8.52;65.78
29417;BME280;28421;51.030;4.006;2023-03-04T12:42:49;102662.84;;;8.39;67.12
29417;BME280;28421;51.030;4.006;2023-03-04T12:45:38;102663.66;;;8.03;68.21
29417;BME280;28421;51.030;4.006;2023-03-04T12:48:25;102620.72;;;7.91;67.99
29417;BME280;28421;51.030;4.006;2023-03-04T12:53:41;102646.72;;;7.53;72.32
29417;BME280;28421;51.030;4.006;2023-03-04T12:56:21;102642.53;;;7.61;71.85
29417;BME280;28421;51.030;4.006;2023-03-04T12:58:47;102616.00;;;7.33;72.76
29417;BME280;28421;51.030;4.006;2023-03-04T13:01:35;102658.91;;;7.69;72.37
29417;BME280;28421;51.030;4.006;2023-03-04T13:04:28;102597.00;;;7.61;71.26
29417;BME280;28421;51.030;4.006;2023-03-04T13:09:41;102644.09;;;7.89;72.48
29417;BME280;28421;51.030;4.006;2023-03-04T13:12:17;102593.69;;;8.31;70.63
29417;BME280;28421;51.030;4.006;2023-03-04T13:22:47;102573.56;;;8.26;68.30
29417;BME280;28421;51.030;4.006;2023-03-04T13:25:34;102604.47;;;9.13;66.54
29417;BME280;28421;51.030;4.006;2023-03-04T13:38:37;102587.03;;;9.18;65.48
29417;BME280;28421;51.030;4.006;2023-03-04T13:41:15;102582.41;;;9.43;65.26
29417;BME280;28421;51.030;4.006;2023-03-04T13:43:51;102585.81;;;9.45;64.92
29417;BME280;28421;51.030;4.006;2023-03-04T13:48:50;102525.72;;;8.67;65.14
29417;BME280;28421;51.030;4.006;2023-03-04T13:51:40;102583.72;;;9.49;64.24
29417;BME280;28421;51.030;4.006;2023-03-04T13:54:34;102563.13;;;9.27;64.11
29417;BME280;28421;51.030;4.006;2023-03-04T13:59:38;102583.09;;;9.11;65.05
29417;BME280;28421;51.030;4.006;2023-03-04T14:02:15;102533.13;;;8.29;66.42
29417;BME280;28421;51.030;4.006;2023-03-04T14:07:33;102586.28;;;8.59;66.18
29417;BME280;28421;51.030;4.006;2023-03-04T14:10:20;102524.97;;;8.30;66.20
29417;BME280;28421;51.030;4.006;2023-03-04T14:12:55;102549.34;;;8.51;66.65
29417;BME280;28421;51.030;4.006;2023-03-04T14:15:29;102574.94;;;8.66;66.43
29417;BME280;28421;51.030;4.006;2023-03-04T14:17:57;102537.13;;;8.47;66.43
29417;BME280;28421;51.030;4.006;2023-03-04T14:22:53;102522.72;;;8.13;67.76
29417;BME280;28421;51.030;4.006;2023-03-04T14:25:26;102563.44;;;8.42;67.79
29417;BME280;28421;51.030;4.006;2023-03-04T14:28:09;102514.44;;;8.16;67.50
29417;BME280;28421;51.030;4.006;2023-03-04T14:30:36;102512.84;;;8.37;67.39
29417;BME280;28421;51.030;4.006;2023-03-04T14:33:06;102508.78;;;8.32;67.24
29417;BME280;28421;51.030;4.006;2023-03-04T14:35:33;102527.13;;;8.25;67.83
29417;BME280;28421;51.030;4.006;2023-03-04T14:38:03;102541.16;;;8.29;68.58
29417;BME280;28421;51.030;4.006;2023-03-04T14:40:33;102549.78;;;8.45;68.31
29417;BME280;28421;51.030;4.006;2023-03-04T14:43:04;102516.47;;;8.36;68.33
29417;BME280;28421;51.030;4.006;2023-03-04T14:45:31;102520.56;;;8.53;67.88
29417;BME280;28421;51.030;4.006;2023-03-04T14:48:01;102507.19;;;8.64;67.46
29417;BME280;28421;51.030;4.006;2023-03-04T14:50:29;102496.00;;;8.82;66.73
29417;BME280;28421;51.030;4.006;2023-03-04T14:55:32;102508.56;;;8.81;66.52
29417;BME280;28421;51.030;4.006;2023-03-04T14:58:15;102525.03;;;8.99;66.21
29417;BME280;28421;51.030;4.006;2023-03-04T15:00:44;102536.75;;;9.09;66.42
29417;BME280;28421;51.030;4.006;2023-03-04T15:03:22;102483.22;;;8.96;66.09
29417;BME280;28421;51.030;4.006;2023-03-04T15:05:49;102473.31;;;8.63;65.94
29417;BME280;28421;51.030;4.006;2023-03-04T15:08:22;102493.91;;;8.63;65.82
29417;BME280;28421;51.030;4.006;2023-03-04T15:10:58;102533.53;;;8.35;66.39
29417;BME280;28421;51.030;4.006;2023-03-04T15:13:47;102523.22;;;8.42;67.10
29417;BME280;28421;51.030;4.006;2023-03-04T15:16:21;102506.03;;;8.44;66.96
29417;BME280;28421;51.030;4.006;2023-03-04T15:21:35;102480.44;;;8.40;65.62
29417;BME280;28421;51.030;4.006;2023-03-04T15:24:02;102474.41;;;8.61;65.94
29417;BME280;28421;51.030;4.006;2023-03-04T15:26:30;102492.44;;;8.59;65.68
29417;BME280;28421;51.030;4.006;2023-03-04T15:28:55;102484.41;;;8.70;65.25
29417;BME280;28421;51.030;4.006;2023-03-04T15:31:22;102453.84;;;8.26;66.23
29417;BME280;28421;51.030;4.006;2023-03-04T15:33:50;102446.59;;;8.39;66.13
29417;BME280;28421;51.030;4.006;2023-03-04T15:36:21;102505.97;;;8.68;65.94
29417;BME280;28421;51.030;4.006;2023-03-04T15:38:51;102459.00;;;8.40;66.20
29417;BME280;28421;51.030;4.006;2023-03-04T15:41:25;102455.19;;;8.32;66.61
29417;BME280;28421;51.030;4.006;2023-03-04T15:43:52;102496.75;;;8.37;66.99
29417;BME280;28421;51.030;4.006;2023-03-04T15:46:18;102448.69;;;8.23;66.44
29417;BME280;28421;51.030;4.006;2023-03-04T15:48:44;102473.88;;;8.44;67.00
29417;BME280;28421;51.030;4.006;2023-03-04T15:51:13;102472.44;;;8.52;66.93
29417;BME280;28421;51.030;4.006;2023-03-04T15:53:50;102484.56;;;8.80;66.27
29417;BME280;28421;51.030;4.006;2023-03-04T15:56:18;102465.72;;;8.57;66.12
29417;BME280;28421;51.030;4.006;2023-03-04T15:59:14;102498.06;;;8.78;66.96
29417;BME280;28421;51.030;4.006;2023-03-04T16:01:40;102455.97;;;8.21;67.91
29417;BME280;28421;51.030;4.006;2023-03-04T16:04:12;102431.25;;;8.06;68.28
29417;BME280;28421;51.030;4.006;2023-03-04T16:06:40;102462.59;;;8.28;68.14
29417;BME280;28421;51.030;4.006;2023-03-04T16:09:10;102446.06;;;8.34;67.88
29417;BME280;28421;51.030;4.006;2023-03-04T16:11:41;102497.81;;;8.59;68.87
29417;BME280;28421;51.030;4.006;2023-03-04T16:14:12;102483.78;;;8.55;68.31
29417;BME280;28421;51.030;4.006;2023-03-04T16:16:39;102457.66;;;8.11;70.23
29417;BME280;28421;51.030;4.006;2023-03-04T16:19:05;102428.88;;;7.66;71.16
29417;BME280;28421;51.030;4.006;2023-03-04T16:21:31;102446.97;;;7.87;71.91
29417;BME280;28421;51.030;4.006;2023-03-04T16:23:57;102496.44;;;7.94;72.62
29417;BME280;28421;51.030;4.006;2023-03-04T16:26:23;102493.13;;;7.90;72.60
29417;BME280;28421;51.030;4.006;2023-03-04T16:28:50;102507.22;;;7.81;74.32
29417;BME280;28421;51.030;4.006;2023-03-04T16:31:17;102500.72;;;7.72;73.98
29417;BME280;28421;51.030;4.006;2023-03-04T16:33:42;102475.09;;;7.44;74.08
29417;BME280;28421;51.030;4.006;2023-03-04T16:36:19;102482.81;;;7.49;74.66
29417;BME280;28421;51.030;4.006;2023-03-04T16:38:45;102471.75;;;7.17;75.75
29417;BME280;28421;51.030;4.006;2023-03-04T16:41:13;102463.84;;;7.15;75.33
29417;BME280;28421;51.030;4.006;2023-03-04T16:43:40;102463.63;;;7.18;75.14
29417;BME280;28421;51.030;4.006;2023-03-04T16:46:06;102468.19;;;7.29;75.02
29417;BME280;28421;51.030;4.006;2023-03-04T16:48:31;102482.97;;;7.35;74.91
29417;BME280;28421;51.030;4.006;2023-03-04T16:50:57;102463.00;;;7.02;75.76
29417;BME280;28421;51.030;4.006;2023-03-04T16:53:32;102413.53;;;6.58;76.65
29417;BME280;28421;51.030;4.006;2023-03-04T16:56:09;102436.00;;;6.68;77.06
29417;BME280;28421;51.030;4.006;2023-03-04T16:58:36;102456.25;;;6.96;76.89
29417;BME280;28421;51.030;4.006;2023-03-04T17:01:01;102447.84;;;6.90;77.28
29417;BME280;28421;51.030;4.006;2023-03-04T17:03:27;102468.56;;;7.12;76.79
29417;BME280;28421;51.030;4.006;2023-03-04T17:05:52;102485.13;;;7.04;77.74
29417;BME280;28421;51.030;4.006;2023-03-04T17:08:18;102466.22;;;6.94;77.51
29417;BME280;28421;51.030;4.006;2023-03-04T17:10:43;102472.75;;;6.90;78.00
29417;BME280;28421;51.030;4.006;2023-03-04T17:13:09;102497.13;;;7.11;78.51
29417;BME280;28421;51.030;4.006;2023-03-04T17:15:34;102460.75;;;6.96;77.93
29417;BME280;28421;51.030;4.006;2023-03-04T17:18:00;102455.88;;;6.77;78.15
29417;BME280;28421;51.030;4.006;2023-03-04T17:20:25;102444.84;;;6.94;77.89
29417;BME280;28421;51.030;4.006;2023-03-04T17:22:52;102458.63;;;6.76;78.53
29417;BME280;28421;51.030;4.006;2023-03-04T17:25:17;102494.25;;;7.14;78.20
29417;BME280;28421;51.030;4.006;2023-03-04T17:27:43;102459.53;;;6.76;78.21
29417;BME280;28421;51.030;4.006;2023-03-04T17:30:10;102503.00;;;7.04;78.92
29417;BME280;28421;51.030;4.006;2023-03-04T17:32:36;102461.00;;;6.80;77.89
29417;BME280;28421;51.030;4.006;2023-03-04T17:35:05;102465.91;;;6.99;77.52
29417;BME280;28421;51.030;4.006;2023-03-04T17:37:31;102504.50;;;7.20;77.16
29417;BME280;28421;51.030;4.006;2023-03-04T17:39:56;102491.03;;;6.71;78.79
29417;BME280;28421;51.030;4.006;2023-03-04T17:42:22;102466.78;;;6.61;78.54
29417;BME280;28421;51.030;4.006;2023-03-04T17:44:47;102484.19;;;6.80;78.32
29417;BME280;28421;51.030;4.006;2023-03-04T17:47:13;102472.31;;;6.84;77.76
29417;BME280;28421;51.030;4.006;2023-03-04T17:49:39;102458.13;;;6.58;77.34
29417;BME280;28421;51.030;4.006;2023-03-04T17:52:05;102468.06;;;6.56;78.46
29417;BME280;28421;51.030;4.006;2023-03-04T17:54:30;102507.00;;;6.98;77.63
29417;BME280;28421;51.030;4.006;2023-03-04T17:56:56;102471.06;;;6.77;77.68
29417;BME280;28421;51.030;4.006;2023-03-04T17:59:21;102478.84;;;6.67;77.48
29417;BME280;28421;51.030;4.006;2023-03-04T18:01:47;102469.66;;;6.58;77.87
29417;BME280;28421;51.030;4.006;2023-03-04T18:04:14;102481.63;;;6.65;77.85
29417;BME280;28421;51.030;4.006;2023-03-04T18:06:40;102486.25;;;6.76;77.29
29417;BME280;28421;51.030;4.006;2023-03-04T18:09:06;102498.66;;;6.64;77.96
29417;BME280;28421;51.030;4.006;2023-03-04T18:11:34;102445.19;;;6.52;77.07
29417;BME280;28421;51.030;4.006;2023-03-04T18:13:59;102478.44;;;6.60;76.94
29417;BME280;28421;51.030;4.006;2023-03-04T18:16:25;102490.09;;;6.72;77.22
29417;BME280;28421;51.030;4.006;2023-03-04T18:18:54;102479.63;;;6.69;76.39
29417;BME280;28421;51.030;4.006;2023-03-04T18:21:22;102472.53;;;6.42;76.62
29417;BME280;28421;51.030;4.006;2023-03-04T18:23:48;102526.44;;;6.75;76.51
29417;BME280;28421;51.030;4.006;2023-03-04T18:26:14;102526.63;;;6.71;76.25
29417;BME280;28421;51.030;4.006;2023-03-04T18:28:40;102504.19;;;6.61;75.70
29417;BME280;28421;51.030;4.006;2023-03-04T18:31:05;102497.00;;;6.36;75.33
29417;BME280;28421;51.030;4.006;2023-03-04T18:33:31;102488.56;;;6.55;75.35
29417;BME280;28421;51.030;4.006;2023-03-04T18:36:05;102464.63;;;6.54;75.19
29417;BME280;28421;51.030;4.006;2023-03-04T18:38:31;102484.28;;;6.40;73.79
29417;BME280;28421;51.030;4.006;2023-03-04T18:40:58;102521.72;;;6.53;74.17
29417;BME280;28421;51.030;4.006;2023-03-04T18:43:24;102514.34;;;6.56;73.33
29417;BME280;28421;51.030;4.006;2023-03-04T18:46:06;102469.31;;;6.37;73.06
29417;BME280;28421;51.030;4.006;2023-03-04T18:48:42;102521.53;;;6.68;72.58
29417;BME280;28421;51.030;4.006;2023-03-04T18:51:09;102487.94;;;6.39;72.04
29417;BME280;28421;51.030;4.006;2023-03-04T18:53:34;102493.06;;;6.55;72.19
29417;BME280;28421;51.030;4.006;2023-03-04T18:56:04;102490.50;;;6.40;71.62
29417;BME280;28421;51.030;4.006;2023-03-04T18:58:33;102527.19;;;6.51;71.45
29417;BME280;28421;51.030;4.006;2023-03-04T19:01:00;102454.56;;;6.32;71.33
29417;BME280;28421;51.030;4.006;2023-03-04T19:03:29;102462.81;;;6.41;70.81
29417;BME280;28421;51.030;4.006;2023-03-04T19:05:57;102489.22;;;6.59;69.96
29417;BME280;28421;51.030;4.006;2023-03-04T19:08:22;102484.19;;;6.54;69.87
29417;BME280;28421;51.030;4.006;2023-03-04T19:10:48;102472.97;;;6.49;69.18
29417;BME280;28421;51.030;4.006;2023-03-04T19:13:15;102474.25;;;6.31;69.07
29417;BME280;28421;51.030;4.006;2023-03-04T19:15:43;102495.53;;;6.58;69.03
29417;BME280;28421;51.030;4.006;2023-03-04T19:18:09;102517.69;;;6.72;68.55
29417;BME280;28421;51.030;4.006;2023-03-04T19:20:34;102471.28;;;6.61;68.68
29417;BME280;28421;51.030;4.006;2023-03-04T19:23:02;102498.41;;;6.55;68.32
29417;BME280;28421;51.030;4.006;2023-03-04T19:25:29;102495.06;;;6.38;67.53
29417;BME280;28421;51.030;4.006;2023-03-04T19:27:55;102519.69;;;6.43;67.21
29417;BME280;28421;51.030;4.006;2023-03-04T19:30:20;102469.94;;;6.15;66.99
29417;BME280;28421;51.030;4.006;2023-03-04T19:32:46;102470.31;;;6.09;67.18
29417;BME280;28421;51.030;4.006;2023-03-04T19:35:11;102494.22;;;6.51;67.11
29417;BME280;28421;51.030;4.006;2023-03-04T19:37:37;102472.31;;;6.33;66.84
29417;BME280;28421;51.030;4.006;2023-03-04T19:40:02;102505.16;;;6.47;67.05
29417;BME280;28421;51.030;4.006;2023-03-04T19:42:28;102442.88;;;6.07;67.26
29417;BME280;28421;51.030;4.006;2023-03-04T19:44:54;102469.25;;;6.39;67.24
29417;BME280;28421;51.030;4.006;2023-03-04T19:47:19;102490.72;;;6.50;67.09
29417;BME280;28421;51.030;4.006;2023-03-04T19:49:46;102493.22;;;6.26;67.71
29417;BME280;28421;51.030;4.006;2023-03-04T19:52:12;102479.03;;;6.26;67.96
29417;BME280;28421;51.030;4.006;2023-03-04T19:54:37;102461.59;;;6.07;68.58
29417;BME280;28421;51.030;4.006;2023-03-04T19:57:03;102482.25;;;6.18;68.47